createdAt,value
2023-07-18T00:02:14.784Z,67.80
2023-07-18T00:04:41.862Z,67.90
2023-07-18T00:07:08.910Z,67.90
2023-07-18T00:09:38.556Z,68.10
2023-07-18T00:12:07.097Z,68.20
2023-07-18T00:14:34.139Z,68.10
2023-07-18T00:17:01.479Z,68.10
2023-07-18T00:19:28.676Z,68.20
2023-07-18T00:21:56.520Z,68.30
2023-07-18T00:24:23.891Z,68.50
2023-07-18T00:26:50.794Z,68.60
2023-07-18T00:29:18.267Z,68.90
2023-07-18T00:31:45.443Z,68.90
2023-07-18T00:34:12.575Z,69.00
2023-07-18T00:36:39.632Z,68.90
2023-07-18T00:39:06.670Z,68.90
2023-07-18T00:41:33.717Z,68.90
2023-07-18T00:44:01.866Z,69.20
2023-07-18T00:46:29.944Z,69.00
2023-07-18T00:48:58.550Z,69.00
2023-07-18T00:51:26.229Z,68.90
2023-07-18T00:53:54.178Z,69.10
2023-07-18T00:56:21.353Z,69.30
2023-07-18T00:58:48.299Z,69.00
2023-07-18T01:01:15.402Z,68.90
2023-07-18T01:03:42.630Z,68.90
2023-07-18T01:06:10.757Z,69.00
2023-07-18T01:08:39.905Z,69.30
2023-07-18T01:11:08.354Z,70.10
2023-07-18T01:13:35.774Z,70.50
2023-07-18T01:16:03.757Z,70.80
2023-07-18T01:18:33.141Z,70.60
2023-07-18T01:21:01.575Z,70.80
2023-07-18T01:23:29.320Z,70.90
2023-07-18T01:25:56.916Z,71.10
2023-07-18T01:28:24.046Z,71.10
2023-07-18T01:30:51.130Z,71.00
2023-07-18T01:33:18.088Z,70.90
2023-07-18T01:35:47.138Z,70.80
2023-07-18T01:38:14.537Z,70.60
2023-07-18T01:40:41.519Z,70.60
2023-07-18T01:43:08.416Z,70.60
2023-07-18T01:45:38.342Z,70.50
2023-07-18T01:48:05.998Z,70.40
2023-07-18T01:50:33.561Z,70.30
2023-07-18T01:53:00.500Z,70.40
2023-07-18T01:55:28.239Z,70.50
2023-07-18T01:57:57.172Z,70.50
2023-07-18T02:00:25.554Z,70.60
2023-07-18T02:02:54.233Z,70.60
2023-07-18T02:05:24.380Z,70.50
2023-07-18T02:07:51.821Z,70.60
2023-07-18T02:10:23.136Z,70.80
2023-07-18T02:12:51.884Z,70.60
2023-07-18T02:15:21.660Z,70.70
2023-07-18T02:17:49.242Z,70.60
2023-07-18T02:20:17.914Z,70.60
2023-07-18T02:22:46.202Z,70.80
2023-07-18T02:25:16.344Z,70.80
2023-07-18T02:27:43.496Z,71.00
2023-07-18T02:30:12.843Z,71.00
2023-07-18T02:32:45.338Z,71.10
2023-07-18T02:35:19.034Z,71.10
2023-07-18T02:37:47.101Z,71.10
2023-07-18T02:40:15.640Z,71.20
2023-07-18T02:42:42.611Z,71.20
2023-07-18T02:45:10.919Z,71.60
2023-07-18T02:47:39.763Z,71.40
2023-07-18T02:50:07.544Z,71.40
2023-07-18T02:52:34.633Z,71.70
2023-07-18T02:55:01.903Z,71.70
2023-07-18T02:57:28.744Z,71.90
2023-07-18T02:59:55.601Z,71.90
2023-07-18T03:02:22.492Z,72.00
2023-07-18T03:04:50.035Z,72.10
2023-07-18T03:07:19.095Z,72.30
2023-07-18T03:09:46.945Z,72.40
2023-07-18T03:12:14.464Z,72.50
2023-07-18T03:14:42.806Z,72.50
2023-07-18T03:17:09.863Z,72.60
2023-07-18T03:19:36.730Z,72.70
2023-07-18T03:22:03.639Z,72.70
2023-07-18T03:24:35.213Z,72.70
2023-07-18T03:27:04.283Z,72.70
2023-07-18T03:29:31.761Z,72.90
2023-07-18T03:32:00.703Z,72.90
2023-07-18T03:34:29.104Z,72.90
2023-07-18T03:36:55.970Z,73.10
2023-07-18T03:39:22.889Z,73.10
2023-07-18T03:41:49.767Z,73.00
2023-07-18T03:44:16.686Z,72.90
2023-07-18T03:46:43.640Z,73.00
2023-07-18T03:49:10.486Z,73.00
2023-07-18T03:51:37.779Z,73.00
2023-07-18T03:54:05.796Z,73.10
2023-07-18T03:56:33.125Z,73.00
2023-07-18T03:59:00.216Z,73.00
2023-07-18T04:01:27.175Z,73.00
2023-07-18T04:03:54.412Z,73.00
2023-07-18T04:06:22.235Z,73.00
2023-07-18T04:08:49.164Z,73.00
2023-07-18T04:11:16.024Z,73.10
2023-07-18T04:13:43.081Z,73.10
2023-07-18T04:16:10.089Z,73.20
2023-07-18T04:18:37.019Z,73.20
2023-07-18T04:21:04.477Z,73.20
2023-07-18T04:23:31.682Z,73.30
2023-07-18T04:26:03.076Z,73.20
2023-07-18T04:28:36.075Z,73.20
2023-07-18T04:31:03.847Z,73.10
2023-07-18T04:33:35.169Z,73.10
2023-07-18T04:36:02.458Z,73.10
2023-07-18T04:38:29.582Z,73.20
2023-07-18T04:40:56.638Z,73.20
2023-07-18T04:43:23.937Z,73.30
2023-07-18T04:45:51.129Z,73.30
2023-07-18T04:48:19.445Z,73.20
2023-07-18T04:50:50.171Z,73.10
2023-07-18T04:53:17.171Z,73.20
2023-07-18T04:55:46.790Z,73.10
2023-07-18T04:58:13.610Z,73.10
2023-07-18T05:00:40.560Z,73.00
2023-07-18T05:03:07.599Z,73.00
2023-07-18T05:05:34.523Z,73.00
2023-07-18T05:08:04.257Z,72.90
2023-07-18T05:10:31.183Z,72.80
2023-07-18T05:12:58.298Z,72.70
2023-07-18T05:15:25.468Z,72.70
2023-07-18T05:17:52.410Z,72.50
2023-07-18T05:20:20.284Z,72.50
2023-07-18T05:22:47.657Z,72.30
2023-07-18T05:25:16.080Z,72.20
2023-07-18T05:27:43.715Z,72.20
2023-07-18T05:30:17.576Z,72.20
2023-07-18T05:32:45.840Z,72.10
2023-07-18T05:35:16.607Z,72.10
2023-07-18T05:37:44.696Z,72.20
2023-07-18T05:40:12.649Z,72.10
2023-07-18T05:42:41.469Z,72.00
2023-07-18T05:45:10.836Z,72.00
2023-07-18T05:47:39.734Z,71.90
2023-07-18T05:50:07.641Z,72.00
2023-07-18T05:52:35.399Z,72.10
2023-07-18T05:55:03.359Z,72.10
2023-07-18T05:57:30.325Z,72.10
2023-07-18T05:59:57.766Z,72.20
2023-07-18T06:02:24.694Z,72.30
2023-07-18T06:04:51.514Z,72.30
2023-07-18T06:07:18.559Z,72.30
2023-07-18T06:09:45.534Z,72.40
2023-07-18T06:12:13.594Z,72.40
2023-07-18T06:14:40.749Z,72.50
2023-07-18T06:17:08.129Z,72.60
2023-07-18T06:19:35.223Z,72.70
2023-07-18T06:22:02.131Z,72.90
2023-07-18T06:24:29.330Z,73.10
2023-07-18T06:26:57.714Z,73.30
2023-07-18T06:29:25.548Z,73.90
2023-07-18T06:31:52.649Z,74.40
2023-07-18T06:34:19.606Z,74.60
2023-07-18T06:36:47.184Z,74.70
2023-07-18T06:39:15.083Z,74.60
2023-07-18T06:41:42.637Z,74.60
2023-07-18T06:44:12.776Z,74.90
2023-07-18T06:46:41.803Z,75.10
2023-07-18T06:49:10.619Z,75.10
2023-07-18T06:51:37.538Z,75.30
2023-07-18T06:54:05.002Z,75.30
2023-07-18T06:56:31.946Z,75.20
2023-07-18T06:58:58.899Z,75.20
2023-07-18T07:01:25.879Z,75.20
2023-07-18T07:03:52.855Z,75.40
2023-07-18T07:06:21.437Z,75.20
2023-07-18T07:08:48.373Z,75.30
2023-07-18T07:11:15.369Z,75.20
2023-07-18T07:13:42.572Z,75.30
2023-07-18T07:16:09.694Z,75.50
2023-07-18T07:18:36.565Z,75.50
2023-07-18T07:21:03.837Z,75.50
2023-07-18T07:23:30.773Z,75.40
2023-07-18T07:25:58.206Z,75.20
2023-07-18T07:28:25.243Z,75.20
2023-07-18T07:30:52.973Z,75.10
2023-07-18T07:33:20.643Z,74.90
2023-07-18T07:35:47.983Z,74.90
2023-07-18T07:38:16.171Z,75.20
2023-07-18T07:40:43.207Z,74.80
2023-07-18T07:43:10.202Z,74.80
2023-07-18T07:45:37.259Z,74.60
2023-07-18T07:48:04.627Z,74.60
2023-07-18T07:50:34.951Z,74.40
2023-07-18T07:53:02.082Z,74.20
2023-07-18T07:55:32.106Z,74.00
2023-07-18T07:57:59.005Z,74.10
2023-07-18T08:00:26.058Z,74.00
2023-07-18T08:02:53.304Z,73.60
2023-07-18T08:05:22.077Z,72.50
2023-07-18T08:07:49.769Z,71.60
2023-07-18T08:10:17.217Z,71.40
2023-07-18T08:12:44.421Z,71.30
2023-07-18T08:15:11.442Z,71.30
2023-07-18T08:17:38.474Z,70.70
2023-07-18T08:20:07.938Z,70.80
2023-07-18T08:22:35.454Z,71.00
2023-07-18T08:25:02.716Z,70.70
2023-07-18T08:27:29.549Z,70.20
2023-07-18T08:29:57.017Z,70.20
2023-07-18T08:32:24.004Z,70.30
2023-07-18T08:34:50.953Z,69.80
2023-07-18T08:37:17.847Z,68.40
2023-07-18T08:39:44.825Z,68.40
2023-07-18T08:42:14.941Z,67.80
2023-07-18T08:44:43.482Z,67.40
2023-07-18T08:47:11.515Z,68.00
2023-07-18T08:49:40.973Z,68.10
2023-07-18T08:52:08.440Z,67.40
2023-07-18T08:54:35.751Z,66.30
2023-07-18T08:57:04.767Z,65.20
2023-07-18T08:59:32.321Z,63.10
2023-07-18T09:01:59.337Z,62.80
2023-07-18T09:04:26.441Z,61.20
2023-07-18T09:06:58.994Z,59.00
2023-07-18T09:09:26.737Z,60.10
2023-07-18T09:12:05.395Z,59.70
2023-07-18T09:14:36.039Z,57.60
2023-07-18T09:17:06.001Z,56.10
2023-07-18T09:19:43.955Z,56.10
2023-07-18T09:22:20.336Z,55.60
2023-07-18T09:24:49.402Z,55.00
2023-07-18T09:27:20.405Z,54.10
2023-07-18T09:29:49.247Z,54.70
2023-07-18T09:32:26.254Z,54.40
2023-07-18T09:34:58.480Z,53.80
2023-07-18T09:37:25.512Z,53.40
2023-07-18T09:39:53.156Z,54.70
2023-07-18T09:42:21.336Z,54.30
2023-07-18T09:44:51.358Z,52.90
2023-07-18T09:47:19.377Z,52.80
2023-07-18T09:49:47.021Z,52.80
2023-07-18T09:52:16.060Z,51.40
2023-07-18T09:54:45.450Z,50.80
2023-07-18T09:57:13.824Z,51.80
2023-07-18T09:59:41.610Z,52.30
2023-07-18T10:02:12.172Z,52.10
2023-07-18T10:04:39.868Z,52.10
2023-07-18T10:07:11.990Z,50.40
2023-07-18T10:09:39.582Z,50.40
2023-07-18T10:12:11.218Z,49.60
2023-07-18T10:14:44.127Z,48.30
2023-07-18T10:17:25.005Z,48.30
2023-07-18T10:19:52.039Z,48.90
2023-07-18T10:22:29.992Z,48.60
2023-07-18T10:25:02.278Z,48.10
2023-07-18T10:27:43.586Z,48.60
2023-07-18T10:30:16.958Z,47.70
2023-07-18T10:32:54.971Z,46.70
2023-07-18T10:35:27.532Z,46.50
2023-07-18T10:37:56.846Z,46.50
2023-07-18T10:40:44.679Z,45.80
2023-07-18T10:43:16.922Z,43.70
2023-07-18T10:45:44.807Z,43.50
2023-07-18T10:48:19.864Z,44.10
2023-07-18T10:50:48.686Z,44.60
2023-07-18T10:53:19.442Z,45.60
2023-07-18T10:55:47.899Z,46.10
2023-07-18T10:58:20.886Z,44.50
2023-07-18T11:00:50.357Z,43.40
2023-07-18T11:03:22.218Z,42.50
2023-07-18T11:05:50.566Z,42.10
2023-07-18T11:08:31.518Z,41.80
2023-07-18T11:11:00.730Z,42.20
2023-07-18T11:13:35.673Z,44.00
2023-07-18T11:16:07.547Z,43.50
2023-07-18T11:18:43.220Z,42.80
2023-07-18T11:21:11.204Z,42.10
2023-07-18T11:23:41.135Z,41.30
2023-07-18T11:26:19.357Z,40.60
2023-07-18T11:28:51.040Z,39.70
2023-07-18T11:31:35.165Z,39.00
2023-07-18T11:34:07.653Z,38.10
2023-07-18T11:36:39.593Z,37.30
2023-07-18T11:39:21.620Z,37.70
2023-07-18T11:41:49.798Z,37.30
2023-07-18T11:44:25.763Z,36.20
2023-07-18T11:46:54.925Z,36.50
2023-07-18T11:49:35.102Z,36.70
2023-07-18T11:52:05.022Z,36.50
2023-07-18T11:54:35.371Z,37.40
2023-07-18T11:57:05.297Z,37.00
2023-07-18T11:59:32.785Z,36.70
2023-07-18T12:01:59.825Z,36.60
2023-07-18T12:04:26.804Z,37.30
2023-07-18T12:06:53.746Z,36.90
2023-07-18T12:09:20.758Z,36.30
2023-07-18T12:11:47.591Z,36.00
2023-07-18T12:14:14.405Z,37.00
2023-07-18T12:16:41.311Z,37.20
2023-07-18T12:19:08.241Z,37.10
2023-07-18T12:21:35.375Z,36.90
2023-07-18T12:24:02.883Z,37.50
2023-07-18T12:26:29.840Z,37.10
2023-07-18T12:28:56.690Z,36.70
2023-07-18T12:31:23.927Z,37.00
2023-07-18T12:33:50.954Z,36.00
2023-07-18T12:36:18.009Z,35.20
2023-07-18T12:38:45.102Z,34.40
2023-07-18T12:41:12.130Z,32.90
2023-07-18T12:43:39.109Z,33.30
2023-07-18T12:46:07.350Z,33.50
2023-07-18T12:48:34.394Z,33.00
2023-07-18T12:51:03.199Z,32.40
2023-07-18T12:53:30.084Z,32.00
2023-07-18T12:55:57.046Z,31.50
2023-07-18T12:58:24.033Z,31.50
2023-07-18T13:00:50.907Z,31.60
2023-07-18T13:03:18.324Z,31.70
2023-07-18T13:05:45.188Z,31.70
2023-07-18T13:08:12.493Z,31.90
2023-07-18T13:10:39.489Z,31.90
2023-07-18T13:13:07.536Z,31.40
2023-07-18T13:15:34.537Z,30.40
2023-07-18T13:18:01.880Z,30.40
2023-07-18T13:20:29.152Z,31.20
2023-07-18T13:22:56.956Z,30.90
2023-07-18T13:25:24.068Z,30.80
2023-07-18T13:27:50.873Z,30.50
2023-07-18T13:30:17.910Z,30.60
2023-07-18T13:32:46.897Z,30.90
2023-07-18T13:35:14.019Z,30.40
2023-07-18T13:37:41.015Z,30.30
2023-07-18T13:40:09.064Z,29.90
2023-07-18T13:42:35.983Z,29.70
2023-07-18T13:45:05.551Z,29.60
2023-07-18T13:47:32.405Z,28.60
2023-07-18T13:49:59.296Z,28.60
2023-07-18T13:52:27.495Z,28.50
2023-07-18T13:54:54.462Z,29.00
2023-07-18T13:57:21.377Z,29.90
2023-07-18T13:59:48.353Z,29.00
2023-07-18T14:02:15.246Z,28.20
2023-07-18T14:04:42.205Z,28.30
2023-07-18T14:07:09.043Z,29.10
2023-07-18T14:09:35.783Z,29.20
2023-07-18T14:12:02.714Z,28.70
2023-07-18T14:14:29.607Z,29.30
2023-07-18T14:16:56.614Z,30.10
2023-07-18T14:19:23.465Z,29.90
2023-07-18T14:21:50.568Z,30.70
2023-07-18T14:24:17.518Z,31.10
2023-07-18T14:26:45.481Z,31.00
2023-07-18T14:29:12.392Z,30.50
2023-07-18T14:31:40.080Z,30.60
2023-07-18T14:34:07.683Z,31.00
2023-07-18T14:36:35.444Z,31.60
2023-07-18T14:39:02.681Z,32.20
2023-07-18T14:41:29.493Z,32.90
2023-07-18T14:43:56.372Z,33.80
2023-07-18T14:46:24.316Z,33.60
2023-07-18T14:48:51.493Z,32.80
2023-07-18T14:51:18.506Z,32.30
2023-07-18T14:53:45.429Z,32.30
2023-07-18T14:56:12.366Z,32.60
2023-07-18T14:58:39.368Z,32.90
2023-07-18T15:01:07.479Z,33.50
2023-07-18T15:03:36.677Z,33.90
2023-07-18T15:06:07.131Z,34.10
2023-07-18T15:08:35.076Z,34.10
2023-07-18T15:11:02.401Z,34.00
2023-07-18T15:13:29.312Z,34.10
2023-07-18T15:15:56.287Z,34.60
2023-07-18T15:18:23.224Z,33.90
2023-07-18T15:20:50.185Z,33.90
2023-07-18T15:23:17.160Z,34.90
2023-07-18T15:25:44.405Z,35.70
2023-07-18T15:28:14.488Z,36.20
2023-07-18T15:30:42.192Z,36.20
2023-07-18T15:33:24.389Z,36.30
2023-07-18T15:35:53.262Z,36.30
2023-07-18T15:38:20.243Z,36.60
2023-07-18T15:40:47.799Z,37.00
2023-07-18T15:43:14.985Z,37.60
2023-07-18T15:45:41.969Z,38.10
2023-07-18T15:48:09.427Z,38.00
2023-07-18T15:50:36.517Z,37.00
2023-07-18T15:53:03.664Z,36.50
2023-07-18T15:55:30.846Z,35.80
2023-07-18T15:57:57.793Z,35.70
2023-07-18T16:00:24.941Z,35.60
2023-07-18T16:02:52.230Z,35.30
2023-07-18T16:05:19.623Z,35.50
2023-07-18T16:07:47.177Z,35.80
2023-07-18T16:10:14.170Z,36.10
2023-07-18T16:12:42.397Z,36.20
2023-07-18T16:15:10.970Z,36.20
2023-07-18T16:17:38.106Z,35.90
2023-07-18T16:20:06.228Z,35.90
2023-07-18T16:22:33.167Z,35.60
2023-07-18T16:25:00.577Z,35.30
2023-07-18T16:27:27.576Z,35.30
2023-07-18T16:29:54.418Z,35.70
2023-07-18T16:32:21.307Z,35.70
2023-07-18T16:34:48.101Z,35.80
2023-07-18T16:37:14.975Z,36.10
2023-07-18T16:39:41.809Z,36.30
2023-07-18T16:42:22.804Z,36.70
2023-07-18T16:44:51.213Z,37.30
2023-07-18T16:47:18.423Z,37.80
2023-07-18T16:49:45.614Z,38.20
2023-07-18T16:52:12.580Z,38.60
2023-07-18T16:54:39.510Z,39.00
2023-07-18T16:57:06.836Z,39.20
2023-07-18T16:59:35.090Z,39.30
2023-07-18T17:02:05.556Z,39.40
2023-07-18T17:04:33.477Z,39.30
2023-07-18T17:07:00.743Z,39.50
2023-07-18T17:09:27.595Z,39.90
2023-07-18T17:11:54.346Z,40.20
2023-07-18T17:14:21.247Z,40.20
2023-07-18T17:16:48.123Z,40.80
2023-07-18T17:19:15.300Z,41.00
2023-07-18T17:21:42.236Z,41.10
2023-07-18T17:24:09.042Z,41.40
2023-07-18T17:26:36.452Z,41.50
2023-07-18T17:29:03.346Z,41.90
2023-07-18T17:31:31.645Z,42.00
2023-07-18T17:34:01.404Z,42.10
2023-07-18T17:36:28.436Z,42.40
2023-07-18T17:38:55.727Z,42.60
2023-07-18T17:41:23.101Z,42.70
2023-07-18T17:43:50.792Z,42.80
2023-07-18T17:46:17.843Z,43.00
2023-07-18T17:48:45.472Z,43.10
2023-07-18T17:51:12.651Z,42.90
2023-07-18T17:53:39.877Z,42.90
2023-07-18T17:56:07.572Z,42.80
2023-07-18T17:58:34.668Z,42.90
2023-07-18T18:01:01.601Z,42.90
2023-07-18T18:03:28.653Z,43.00
2023-07-18T18:05:55.623Z,42.90
2023-07-18T18:08:22.451Z,42.90
2023-07-18T18:10:49.508Z,43.20
2023-07-18T18:13:17.054Z,43.30
2023-07-18T18:16:00.709Z,43.30
2023-07-18T18:18:32.797Z,43.20
2023-07-18T18:21:01.457Z,43.30
2023-07-18T18:23:38.438Z,43.20
2023-07-18T18:26:08.952Z,43.30
2023-07-18T18:28:36.114Z,43.40
2023-07-18T18:31:03.188Z,43.50
2023-07-18T18:33:30.220Z,43.50
2023-07-18T18:35:57.386Z,43.70
2023-07-18T18:38:24.254Z,43.80
2023-07-18T18:40:51.200Z,43.90
2023-07-18T18:43:18.185Z,44.10
2023-07-18T18:45:45.131Z,44.30
2023-07-18T18:48:12.199Z,44.30
2023-07-18T18:50:40.240Z,44.40
2023-07-18T18:53:07.976Z,44.60
2023-07-18T18:55:36.611Z,44.70
2023-07-18T18:58:03.923Z,44.80
2023-07-18T19:00:31.034Z,45.20
2023-07-18T19:02:59.444Z,45.50
2023-07-18T19:05:27.080Z,45.60
2023-07-18T19:07:54.439Z,45.70
2023-07-18T19:10:21.672Z,46.00
2023-07-18T19:12:48.511Z,46.20
2023-07-18T19:15:15.388Z,46.40
2023-07-18T19:17:42.534Z,46.50
2023-07-18T19:20:10.064Z,46.70
2023-07-18T19:22:37.081Z,46.80
2023-07-18T19:25:07.287Z,47.00
2023-07-18T19:27:34.265Z,47.10
2023-07-18T19:30:01.203Z,47.20
2023-07-18T19:32:28.105Z,47.30
2023-07-18T19:34:54.900Z,47.50
2023-07-18T19:37:22.107Z,47.80
2023-07-18T19:39:48.962Z,47.90
2023-07-18T19:42:15.913Z,48.20
2023-07-18T19:44:43.476Z,48.10
2023-07-18T19:47:11.656Z,48.20
2023-07-18T19:49:38.610Z,48.30
2023-07-18T19:52:06.048Z,48.30
2023-07-18T19:54:32.961Z,48.90
2023-07-18T19:56:59.856Z,49.00
2023-07-18T19:59:26.857Z,49.30
2023-07-18T20:01:53.835Z,49.50
2023-07-18T20:04:20.795Z,49.60
2023-07-18T20:06:47.753Z,49.70
2023-07-18T20:09:14.759Z,49.60
2023-07-18T20:11:41.727Z,49.70
2023-07-18T20:14:08.882Z,49.80
2023-07-18T20:16:35.753Z,49.90
2023-07-18T20:19:03.249Z,50.50
2023-07-18T20:21:31.455Z,51.30
2023-07-18T20:23:58.595Z,51.80
2023-07-18T20:26:25.932Z,52.10
2023-07-18T20:28:52.769Z,52.30
2023-07-18T20:31:20.450Z,52.70
2023-07-18T20:33:48.325Z,52.90
2023-07-18T20:36:15.383Z,53.30
2023-07-18T20:38:44.089Z,53.80
2023-07-18T20:41:11.275Z,53.90
2023-07-18T20:43:38.400Z,54.00
2023-07-18T20:46:05.588Z,54.00
2023-07-18T20:48:35.746Z,54.10
2023-07-18T20:51:02.721Z,54.80
2023-07-18T20:53:30.556Z,55.10
2023-07-18T20:55:57.842Z,55.20
2023-07-18T20:58:24.773Z,55.30
2023-07-18T21:00:51.915Z,55.50
2023-07-18T21:03:18.811Z,55.70
2023-07-18T21:05:48.827Z,55.80
2023-07-18T21:08:16.779Z,56.00
2023-07-18T21:10:43.700Z,56.10
2023-07-18T21:13:10.633Z,56.40
2023-07-18T21:15:37.578Z,56.60
2023-07-18T21:18:04.679Z,56.70
2023-07-18T21:20:31.758Z,56.90
2023-07-18T21:23:00.871Z,57.00
2023-07-18T21:25:28.759Z,57.30
2023-07-18T21:27:55.936Z,57.40
2023-07-18T21:30:22.781Z,57.70
2023-07-18T21:32:49.757Z,57.80
2023-07-18T21:35:16.877Z,58.00
2023-07-18T21:37:43.773Z,58.20
2023-07-18T21:40:11.822Z,58.30
2023-07-18T21:42:38.729Z,58.50
2023-07-18T21:45:06.256Z,58.70
2023-07-18T21:47:33.602Z,58.80
2023-07-18T21:50:00.607Z,58.90
2023-07-18T21:52:27.539Z,59.10
2023-07-18T21:54:56.324Z,59.10
2023-07-18T21:57:23.456Z,59.30
2023-07-18T21:59:50.587Z,59.40
2023-07-18T22:02:21.012Z,59.50
2023-07-18T22:04:48.430Z,59.70
2023-07-18T22:07:15.485Z,60.00
2023-07-18T22:09:42.319Z,60.20
2023-07-18T22:12:09.270Z,60.30
2023-07-18T22:14:36.117Z,60.50
2023-07-18T22:17:03.275Z,60.60
2023-07-18T22:19:30.158Z,60.80
2023-07-18T22:21:57.927Z,60.90
2023-07-18T22:24:24.804Z,61.00
2023-07-18T22:26:51.956Z,61.00
2023-07-18T22:29:18.794Z,60.80
2023-07-18T22:31:45.645Z,60.60
2023-07-18T22:34:12.731Z,60.60
2023-07-18T22:36:39.606Z,60.50
2023-07-18T22:39:06.871Z,60.50
2023-07-18T22:41:34.028Z,60.40
2023-07-18T22:44:00.984Z,60.50
2023-07-18T22:46:27.973Z,60.50
2023-07-18T22:48:55.125Z,60.60
2023-07-18T22:51:22.882Z,60.90
2023-07-18T22:53:50.165Z,61.10
2023-07-18T22:56:17.869Z,61.20
2023-07-18T22:58:45.107Z,61.40
2023-07-18T23:01:12.481Z,61.60
2023-07-18T23:03:39.650Z,61.70
2023-07-18T23:06:06.776Z,61.90
2023-07-18T23:08:33.803Z,62.10
2023-07-18T23:11:00.724Z,62.30
2023-07-18T23:13:27.564Z,62.30
2023-07-18T23:15:54.427Z,62.30
2023-07-18T23:18:21.422Z,62.40
2023-07-18T23:20:48.384Z,62.40
2023-07-18T23:23:15.401Z,62.50
2023-07-18T23:25:42.451Z,62.50
2023-07-18T23:28:10.077Z,62.70
2023-07-18T23:30:42.878Z,62.80
2023-07-18T23:33:09.915Z,63.00
2023-07-18T23:35:37.931Z,62.70
2023-07-18T23:38:04.927Z,62.40
2023-07-18T23:40:31.892Z,62.20
2023-07-18T23:42:58.711Z,62.20
2023-07-18T23:45:25.628Z,62.00
2023-07-18T23:47:52.551Z,62.20
2023-07-18T23:50:19.436Z,62.20
2023-07-18T23:52:46.284Z,62.20
2023-07-18T23:55:13.546Z,62.30
2023-07-18T23:57:40.535Z,62.40
